aviador You're here:

KTCM Decoded Metar

TACOMA in WA, USA
Report Time2017-05-30 00:58:00
UTC Time2017-05-30 01:33:14
Flight Rules vfr VFR
Wind340° at 04 kt
W.Decomp.*RWY 34: 3.8 kt HW 1.4 kt LCW
W.Rank340° ranks 30
Current wind is below 340° avg. (4.3)
Visibility9999 m
Phenomena:N/A
Clouds:N/A
Expected CloudBase > 4,000 ft AGL from Temp-Dew spread
CeilingNone
Temp24°C (ISA +10)
Dew Point14°C (54% RH)
AAT23.9°C
QNH1013 hPa
Density Alt1,654 ft
Elevation322 ft
Report Wrong Elevation
Raw Report
KTCM 300058Z AUTO 34004KT 10SM CLR 24/14 A2992 RMK AO2 SLP135
T02400141 $=

Extra information for KTCM:More info

Metar Taf Metar & Taf Last 4 Metars F.Rules Stats Wind Profile Meteogram Temp Stats Airport Information Weather charts Add Link Nearby VenuesMetar ALERT Operation Metar Decoded Social comments

AIRNAV info for KTCM